createdAt,value
2022-08-02T00:00:09.703Z,20.60
2022-08-02T00:01:09.805Z,20.56
2022-08-02T00:02:09.912Z,20.53
2022-08-02T00:03:09.668Z,20.51
2022-08-02T00:04:09.645Z,20.50
2022-08-02T00:05:09.679Z,20.49
2022-08-02T00:06:09.603Z,20.48
2022-08-02T00:07:11.681Z,20.45
2022-08-02T00:08:09.585Z,20.44
2022-08-02T00:09:09.674Z,20.45
2022-08-02T00:10:09.565Z,20.45
2022-08-02T00:11:09.618Z,20.44
2022-08-02T00:12:09.932Z,20.44
2022-08-02T00:13:09.534Z,20.43
2022-08-02T00:14:09.486Z,20.41
2022-08-02T00:15:09.547Z,20.39
2022-08-02T00:16:09.496Z,20.37
2022-08-02T00:17:09.559Z,20.34
2022-08-02T00:18:09.447Z,20.31
2022-08-02T00:19:09.468Z,20.30
2022-08-02T00:20:09.428Z,20.30
2022-08-02T00:21:09.487Z,20.30
2022-08-02T00:22:09.684Z,20.30
2022-08-02T00:23:09.403Z,20.30
2022-08-02T00:24:28.972Z,20.31
2022-08-02T00:25:10.372Z,20.30
2022-08-02T00:26:09.432Z,20.27
2022-08-02T00:27:09.778Z,20.24
2022-08-02T00:28:09.388Z,20.22
2022-08-02T00:29:09.310Z,20.20
2022-08-02T00:30:09.346Z,20.18
2022-08-02T00:31:09.287Z,20.18
2022-08-02T00:32:09.631Z,20.17
2022-08-02T00:33:09.263Z,20.18
2022-08-02T00:34:28.975Z,20.21
2022-08-02T00:35:10.228Z,20.24
2022-08-02T00:36:09.296Z,20.27
2022-08-02T00:37:09.204Z,20.29
2022-08-02T00:38:10.227Z,20.32
2022-08-02T00:39:34.167Z,20.35
2022-08-02T00:40:10.203Z,20.37
2022-08-02T00:41:09.154Z,20.37
2022-08-02T00:42:30.225Z,20.36
2022-08-02T00:43:09.130Z,20.34
2022-08-02T00:44:09.146Z,20.32
2022-08-02T00:45:09.100Z,20.30
2022-08-02T00:46:09.210Z,20.30
2022-08-02T00:47:09.080Z,20.29
2022-08-02T00:48:09.171Z,20.29
2022-08-02T00:49:09.128Z,20.29
2022-08-02T00:50:09.089Z,20.31
2022-08-02T00:51:09.028Z,20.32
2022-08-02T00:52:09.361Z,20.32
2022-08-02T00:53:09.288Z,20.32
2022-08-02T00:54:09.070Z,20.31
2022-08-02T00:55:08.974Z,20.30
2022-08-02T00:56:09.033Z,20.29
2022-08-02T00:57:08.947Z,20.28
2022-08-02T00:58:08.991Z,20.28
2022-08-02T00:59:08.922Z,20.26
2022-08-02T01:00:08.904Z,20.25
2022-08-02T01:01:09.052Z,20.22
2022-08-02T01:02:09.253Z,20.18
2022-08-02T01:03:08.973Z,20.16
2022-08-02T01:04:08.890Z,20.14
2022-08-02T01:05:08.893Z,20.12
2022-08-02T01:06:12.130Z,20.10
2022-08-02T01:07:13.278Z,20.11
2022-08-02T01:08:09.804Z,20.11
2022-08-02T01:09:08.841Z,20.10
2022-08-02T01:10:08.830Z,20.10
2022-08-02T01:11:08.869Z,20.10
2022-08-02T01:12:09.665Z,20.10
2022-08-02T01:13:08.855Z,20.09
2022-08-02T01:14:08.734Z,20.07
2022-08-02T01:15:08.758Z,20.05
2022-08-02T01:16:08.814Z,20.02
2022-08-02T01:17:08.776Z,20.00
2022-08-02T01:18:08.693Z,19.99
2022-08-02T01:19:15.890Z,19.98
2022-08-02T01:20:09.672Z,19.97
2022-08-02T01:21:08.693Z,19.95
2022-08-02T01:22:08.959Z,19.93
2022-08-02T01:23:08.706Z,19.91
2022-08-02T01:24:08.613Z,19.90
2022-08-02T01:25:09.304Z,19.91
2022-08-02T01:26:08.581Z,19.91
2022-08-02T01:27:08.646Z,19.93
2022-08-02T01:28:08.975Z,19.92
2022-08-02T01:29:08.548Z,19.92
2022-08-02T01:30:08.533Z,19.93
2022-08-02T01:31:08.566Z,19.93
2022-08-02T01:32:08.924Z,19.94
2022-08-02T01:33:08.574Z,19.94
2022-08-02T01:34:08.524Z,19.94
2022-08-02T01:35:08.507Z,19.96
2022-08-02T01:36:08.448Z,20.00
2022-08-02T01:37:08.515Z,20.04
2022-08-02T01:38:08.406Z,20.09
2022-08-02T01:39:08.517Z,20.12
2022-08-02T01:40:08.419Z,20.15
2022-08-02T01:41:08.429Z,20.17
2022-08-02T01:42:08.676Z,20.19
2022-08-02T01:43:08.465Z,20.22
2022-08-02T01:44:08.345Z,20.23
2022-08-02T01:45:08.367Z,20.23
2022-08-02T01:46:08.327Z,20.23
2022-08-02T01:47:08.387Z,20.24
2022-08-02T01:48:09.502Z,20.24
2022-08-02T01:49:08.697Z,20.24
2022-08-02T01:50:08.257Z,20.24
2022-08-02T01:51:08.748Z,20.26
2022-08-02T01:52:08.494Z,20.31
2022-08-02T01:53:08.349Z,20.33
2022-08-02T01:54:08.217Z,20.34
2022-08-02T01:55:09.890Z,20.35
2022-08-02T01:56:09.278Z,20.33
2022-08-02T01:57:08.431Z,20.30
2022-08-02T01:58:08.505Z,20.30
2022-08-02T01:59:08.769Z,20.33
2022-08-02T02:00:08.128Z,20.38
2022-08-02T02:01:09.228Z,20.43
2022-08-02T02:02:09.534Z,20.47
2022-08-02T02:03:08.178Z,20.52
2022-08-02T02:04:08.108Z,20.58
2022-08-02T02:05:08.108Z,20.64
2022-08-02T02:06:08.048Z,20.70
2022-08-02T02:07:08.110Z,20.73
2022-08-02T02:08:08.020Z,20.75
2022-08-02T02:09:08.119Z,20.74
2022-08-02T02:10:08.030Z,20.73
2022-08-02T02:12:12.051Z,20.73
2022-08-02T02:12:13.449Z,20.74
2022-08-02T02:13:08.959Z,20.73
2022-08-02T02:14:08.059Z,20.71
2022-08-02T02:15:07.930Z,20.71
2022-08-02T02:16:08.021Z,20.71
2022-08-02T02:17:07.910Z,20.70
2022-08-02T02:18:12.729Z,20.70
2022-08-02T02:19:08.881Z,20.72
2022-08-02T02:20:07.902Z,20.71
2022-08-02T02:21:07.885Z,20.66
2022-08-02T02:22:08.233Z,20.62
2022-08-02T02:23:08.025Z,20.60
2022-08-02T02:24:09.128Z,20.58
2022-08-02T02:25:07.801Z,20.55
2022-08-02T02:26:07.838Z,20.52
2022-08-02T02:27:07.793Z,20.48
2022-08-02T02:28:07.930Z,20.44
2022-08-02T02:29:07.753Z,20.40
2022-08-02T02:30:08.823Z,20.36
2022-08-02T02:31:07.713Z,20.35
2022-08-02T02:32:07.913Z,20.32
2022-08-02T02:33:07.692Z,20.28
2022-08-02T02:34:07.744Z,20.24
2022-08-02T02:35:07.673Z,20.19
2022-08-02T02:36:07.732Z,20.14
2022-08-02T02:37:07.642Z,20.10
2022-08-02T02:38:07.723Z,20.05
2022-08-02T02:39:13.109Z,20.00
2022-08-02T02:40:08.615Z,19.95
2022-08-02T02:41:29.151Z,19.90
2022-08-02T02:42:07.796Z,19.84
2022-08-02T02:43:12.056Z,19.78
2022-08-02T02:44:07.547Z,19.73
2022-08-02T02:45:07.566Z,19.69
2022-08-02T02:46:07.555Z,19.65
2022-08-02T02:47:07.582Z,19.60
2022-08-02T02:48:07.481Z,19.56
2022-08-02T02:49:07.587Z,19.51
2022-08-02T02:50:07.474Z,19.47
2022-08-02T02:51:08.317Z,19.44
2022-08-02T02:52:08.765Z,19.41
2022-08-02T02:53:07.524Z,19.38
2022-08-02T02:54:30.314Z,19.35
2022-08-02T02:55:08.412Z,19.33
2022-08-02T02:56:07.446Z,19.31
2022-08-02T02:57:07.397Z,19.29
2022-08-02T02:58:07.592Z,19.26
2022-08-02T02:59:07.365Z,19.24
2022-08-02T03:00:07.367Z,19.21
2022-08-02T03:01:07.356Z,19.20
2022-08-02T03:02:07.393Z,19.19
2022-08-02T03:03:07.303Z,19.18
2022-08-02T03:04:07.659Z,19.16
2022-08-02T03:05:09.793Z,19.14
2022-08-02T03:06:15.833Z,19.11
2022-08-02T03:07:08.322Z,19.09
2022-08-02T03:08:07.774Z,19.07
2022-08-02T03:09:07.428Z,19.05
2022-08-02T03:10:07.285Z,19.03
2022-08-02T03:11:07.198Z,18.99
2022-08-02T03:12:07.248Z,18.96
2022-08-02T03:13:07.169Z,18.93
2022-08-02T03:14:07.269Z,18.91
2022-08-02T03:15:07.138Z,18.89
2022-08-02T03:16:07.241Z,18.86
2022-08-02T03:17:07.118Z,18.83
2022-08-02T03:18:07.188Z,18.80
2022-08-02T03:19:07.097Z,18.78
2022-08-02T03:20:07.098Z,18.76
2022-08-02T03:21:07.082Z,18.75
2022-08-02T03:22:09.327Z,18.73
2022-08-02T03:23:07.055Z,18.72
2022-08-02T03:24:07.129Z,18.73
2022-08-02T03:25:07.009Z,18.73
2022-08-02T03:26:07.052Z,18.73
2022-08-02T03:27:06.986Z,18.73
2022-08-02T03:28:07.009Z,18.71
2022-08-02T03:29:09.827Z,18.70
2022-08-02T03:30:06.949Z,18.71
2022-08-02T03:31:06.981Z,18.70
2022-08-02T03:32:06.923Z,18.69
2022-08-02T03:33:07.009Z,18.68
2022-08-02T03:34:06.911Z,18.68
2022-08-02T03:35:06.910Z,18.68
2022-08-02T03:36:06.881Z,18.67
2022-08-02T03:37:06.920Z,18.67
2022-08-02T03:38:06.842Z,18.67
2022-08-02T03:39:07.865Z,18.66
2022-08-02T03:40:06.836Z,18.66
2022-08-02T03:41:07.870Z,18.67
2022-08-02T03:42:06.790Z,18.68
2022-08-02T03:43:06.861Z,18.68
2022-08-02T03:44:06.750Z,18.69
2022-08-02T03:45:08.949Z,18.71
2022-08-02T03:46:06.741Z,18.74
2022-08-02T03:47:06.792Z,18.76
2022-08-02T03:48:33.726Z,18.77
2022-08-02T03:49:07.713Z,18.78
2022-08-02T03:50:06.681Z,18.80
2022-08-02T03:51:06.712Z,18.80
2022-08-02T03:52:06.702Z,18.81
2022-08-02T03:53:06.731Z,18.82
2022-08-02T03:54:07.632Z,18.81
2022-08-02T03:55:08.731Z,18.81
2022-08-02T03:56:06.659Z,18.80
2022-08-02T03:57:06.653Z,18.77
2022-08-02T03:58:06.592Z,18.76
2022-08-02T03:59:07.600Z,18.76
2022-08-02T04:00:06.569Z,18.79
2022-08-02T04:01:06.615Z,18.83
2022-08-02T04:02:06.523Z,18.86
2022-08-02T04:03:06.636Z,18.89
2022-08-02T04:04:06.520Z,18.91
2022-08-02T04:05:06.513Z,18.92
2022-08-02T04:06:06.464Z,18.92
2022-08-02T04:07:07.321Z,18.91
2022-08-02T04:08:35.209Z,18.89
2022-08-02T04:09:07.450Z,18.86
2022-08-02T04:10:06.423Z,18.82
2022-08-02T04:11:06.453Z,18.78
2022-08-02T04:12:06.386Z,18.76
2022-08-02T04:13:06.464Z,18.74
2022-08-02T04:14:06.367Z,18.73
2022-08-02T04:15:06.427Z,18.74
2022-08-02T04:16:06.347Z,18.74
2022-08-02T04:17:06.527Z,18.74
2022-08-02T04:18:06.305Z,18.72
2022-08-02T04:19:06.423Z,18.72
2022-08-02T04:20:06.288Z,18.71
2022-08-02T04:21:07.418Z,18.69
2022-08-02T04:22:06.246Z,18.68
2022-08-02T04:23:27.324Z,18.69
2022-08-02T04:24:06.227Z,18.70
2022-08-02T04:25:06.216Z,18.70
2022-08-02T04:26:08.644Z,18.70
2022-08-02T04:27:19.495Z,18.70
2022-08-02T04:28:17.797Z,18.73
2022-08-02T04:29:07.196Z,18.79
2022-08-02T04:30:06.156Z,18.84
2022-08-02T04:31:06.196Z,18.91
2022-08-02T04:32:06.118Z,18.97
2022-08-02T04:33:06.167Z,19.01
2022-08-02T04:34:06.096Z,19.05
2022-08-02T04:35:23.506Z,19.10
2022-08-02T04:36:07.147Z,19.16
2022-08-02T04:37:06.059Z,19.22
2022-08-02T04:38:10.233Z,19.27
2022-08-02T04:39:06.067Z,19.29
2022-08-02T04:40:06.054Z,19.31
2022-08-02T04:41:06.006Z,19.34
2022-08-02T04:42:07.088Z,19.37
2022-08-02T04:43:05.999Z,19.40
2022-08-02T04:44:06.080Z,19.47
2022-08-02T04:45:05.991Z,19.55
2022-08-02T04:46:05.988Z,19.60
2022-08-02T04:47:06.857Z,19.65
2022-08-02T04:48:06.527Z,19.70
2022-08-02T04:49:05.955Z,19.74
2022-08-02T04:50:05.916Z,19.78
2022-08-02T04:51:05.899Z,19.78
2022-08-02T04:52:06.959Z,19.80
2022-08-02T04:53:05.840Z,19.82
2022-08-02T04:54:09.602Z,19.84
2022-08-02T04:55:05.818Z,19.83
2022-08-02T04:56:05.860Z,19.83
2022-08-02T04:57:05.818Z,19.84
2022-08-02T04:58:23.733Z,19.86
2022-08-02T04:59:06.779Z,19.90
2022-08-02T05:00:06.861Z,19.91
2022-08-02T05:01:05.875Z,19.93
2022-08-02T05:02:06.821Z,19.96
2022-08-02T05:03:05.730Z,19.98
2022-08-02T05:04:05.810Z,19.99
2022-08-02T05:05:09.891Z,20.00
2022-08-02T05:06:13.290Z,20.01
2022-08-02T05:07:06.659Z,20.04
2022-08-02T05:08:05.741Z,20.06
2022-08-02T05:09:05.650Z,20.07
2022-08-02T05:10:05.661Z,20.07
2022-08-02T05:11:05.601Z,20.09
2022-08-02T05:12:06.691Z,20.12
2022-08-02T05:13:05.580Z,20.16
2022-08-02T05:14:05.764Z,20.20
2022-08-02T05:15:05.573Z,20.26
2022-08-02T05:16:05.601Z,20.30
2022-08-02T05:17:05.602Z,20.35
2022-08-02T05:18:05.610Z,20.37
2022-08-02T05:19:05.491Z,20.39
2022-08-02T05:20:05.522Z,20.43
2022-08-02T05:21:05.503Z,20.47
2022-08-02T05:22:05.532Z,20.50
2022-08-02T05:23:05.444Z,20.55
2022-08-02T05:24:05.555Z,20.58
2022-08-02T05:25:05.423Z,20.61
2022-08-02T05:26:05.483Z,20.64
2022-08-02T05:27:17.233Z,20.66
2022-08-02T05:28:11.093Z,20.70
2022-08-02T05:29:06.373Z,20.74
2022-08-02T05:30:05.408Z,20.78
2022-08-02T05:31:05.354Z,20.80
2022-08-02T05:32:08.926Z,20.82
2022-08-02T05:33:05.416Z,20.85
2022-08-02T05:34:08.676Z,20.87
2022-08-02T05:35:06.312Z,20.92
2022-08-02T05:36:05.325Z,20.96
2022-08-02T05:37:09.813Z,21.02
2022-08-02T05:38:10.005Z,21.06
2022-08-02T05:39:05.414Z,21.10
2022-08-02T05:40:12.693Z,21.14
2022-08-02T05:41:06.215Z,21.17
2022-08-02T05:42:05.520Z,21.19
2022-08-02T05:43:05.185Z,21.21
2022-08-02T05:44:05.243Z,21.26
2022-08-02T05:45:05.156Z,21.30
2022-08-02T05:46:05.236Z,21.32
2022-08-02T05:47:05.146Z,21.36
2022-08-02T05:48:05.217Z,21.42
2022-08-02T05:49:05.169Z,21.49
2022-08-02T05:50:05.186Z,21.50
2022-08-02T05:51:05.092Z,21.53
2022-08-02T05:52:05.161Z,21.54
2022-08-02T05:53:05.065Z,21.54
2022-08-02T05:54:06.074Z,21.55
2022-08-02T05:55:05.027Z,21.54
2022-08-02T05:56:08.507Z,21.55
2022-08-02T05:57:05.016Z,21.58
2022-08-02T05:58:06.368Z,21.62
2022-08-02T05:59:04.995Z,21.65
2022-08-02T06:00:05.050Z,21.68
2022-08-02T06:01:04.965Z,21.73
2022-08-02T06:02:05.165Z,21.77
2022-08-02T06:03:04.938Z,21.81
2022-08-02T06:04:05.029Z,21.85
2022-08-02T06:05:04.889Z,21.88
2022-08-02T06:06:05.959Z,21.91
2022-08-02T06:07:04.877Z,21.97
2022-08-02T06:08:07.749Z,22.07
2022-08-02T06:09:04.851Z,22.15
2022-08-02T06:10:04.857Z,22.22
2022-08-02T06:11:04.818Z,22.28
2022-08-02T06:12:04.868Z,22.32
2022-08-02T06:13:04.796Z,22.34
2022-08-02T06:14:04.844Z,22.35
2022-08-02T06:15:04.771Z,22.36
2022-08-02T06:16:04.810Z,22.36
2022-08-02T06:17:04.732Z,22.37
2022-08-02T06:18:04.825Z,22.37
2022-08-02T06:19:04.718Z,22.37
2022-08-02T06:20:04.769Z,22.36
2022-08-02T06:22:31.599Z,22.36
2022-08-02T06:22:40.705Z,22.37
2022-08-02T06:23:05.770Z,22.37
2022-08-02T06:24:05.141Z,22.37
2022-08-02T06:25:04.665Z,22.40
2022-08-02T06:26:04.641Z,22.42
2022-08-02T06:27:05.123Z,22.45
2022-08-02T06:28:04.591Z,22.47
2022-08-02T06:29:05.583Z,22.50
2022-08-02T06:30:04.602Z,22.54
2022-08-02T06:31:04.581Z,22.56
2022-08-02T06:32:04.665Z,22.56
2022-08-02T06:33:04.521Z,22.58
2022-08-02T06:34:04.621Z,22.60
2022-08-02T06:35:04.519Z,22.65
2022-08-02T06:36:04.552Z,22.69
2022-08-02T06:37:04.472Z,22.74
2022-08-02T06:38:04.602Z,22.75
2022-08-02T06:39:04.459Z,22.74
2022-08-02T06:40:04.494Z,22.74
2022-08-02T06:41:04.423Z,22.76
2022-08-02T06:42:04.486Z,22.77
2022-08-02T06:43:04.403Z,22.78
2022-08-02T06:44:26.191Z,22.79
2022-08-02T06:45:05.425Z,22.81
2022-08-02T06:46:38.035Z,22.83
2022-08-02T06:47:11.614Z,22.86
2022-08-02T06:48:05.323Z,22.89
2022-08-02T06:49:05.371Z,22.92
2022-08-02T06:50:04.370Z,22.96
2022-08-02T06:51:04.344Z,23.00
2022-08-02T06:52:04.281Z,23.05
2022-08-02T06:53:05.388Z,23.11
2022-08-02T06:54:04.274Z,23.17
2022-08-02T06:55:04.276Z,23.24
2022-08-02T06:56:04.246Z,23.28
2022-08-02T06:57:04.285Z,23.31
2022-08-02T06:58:04.207Z,23.32
2022-08-02T06:59:06.227Z,23.35
2022-08-02T07:00:04.175Z,23.38
2022-08-02T07:01:04.342Z,23.41
2022-08-02T07:02:04.166Z,23.44
2022-08-02T07:03:05.787Z,23.47
2022-08-02T07:04:04.119Z,23.51
2022-08-02T07:05:04.137Z,23.55
2022-08-02T07:06:04.128Z,23.60
2022-08-02T07:07:04.148Z,23.66
2022-08-02T07:08:04.089Z,23.71
2022-08-02T07:09:20.507Z,23.77
2022-08-02T07:10:05.044Z,23.82
2022-08-02T07:11:04.088Z,23.86
2022-08-02T07:12:04.018Z,23.89
2022-08-02T07:13:04.098Z,23.90
2022-08-02T07:14:04.007Z,23.92
2022-08-02T07:15:04.009Z,23.93
2022-08-02T07:16:03.952Z,23.93
2022-08-02T07:17:04.059Z,23.93
2022-08-02T07:18:03.934Z,23.94
2022-08-02T07:19:04.039Z,23.95
2022-08-02T07:20:03.936Z,23.95
2022-08-02T07:21:03.949Z,23.96
2022-08-02T07:22:03.891Z,23.98
2022-08-02T07:23:03.958Z,23.97
2022-08-02T07:24:03.848Z,23.96
2022-08-02T07:25:03.878Z,23.97
2022-08-02T07:26:05.804Z,23.99
2022-08-02T07:27:12.752Z,24.01
2022-08-02T07:28:04.810Z,24.02
2022-08-02T07:29:03.949Z,24.04
2022-08-02T07:30:03.770Z,24.06
2022-08-02T07:31:03.811Z,24.08
2022-08-02T07:32:03.779Z,24.10
2022-08-02T07:33:04.758Z,24.09
2022-08-02T07:34:03.748Z,24.05
2022-08-02T07:35:06.953Z,24.02
2022-08-02T07:36:05.369Z,24.02
2022-08-02T07:37:03.759Z,24.01
2022-08-02T07:38:03.694Z,24.01
2022-08-02T07:39:03.772Z,23.99
2022-08-02T07:40:06.467Z,23.98
2022-08-02T07:41:04.647Z,23.98
2022-08-02T07:42:03.694Z,23.99
2022-08-02T07:43:04.423Z,24.01
2022-08-02T07:44:03.655Z,24.03
2022-08-02T07:45:03.585Z,24.07
2022-08-02T07:46:03.633Z,24.09
2022-08-02T07:47:03.533Z,24.12
2022-08-02T07:48:03.633Z,24.15
2022-08-02T07:49:03.616Z,24.18
2022-08-02T07:50:03.587Z,24.20
2022-08-02T07:51:03.504Z,24.20
2022-08-02T07:52:03.554Z,24.21
2022-08-02T07:53:03.474Z,24.23
2022-08-02T07:54:04.925Z,24.25
2022-08-02T07:55:03.445Z,24.29
2022-08-02T07:56:03.524Z,24.33
2022-08-02T07:57:03.485Z,24.35
2022-08-02T07:58:03.503Z,24.37
2022-08-02T07:59:03.413Z,24.37
2022-08-02T08:00:04.444Z,24.38
2022-08-02T08:01:03.435Z,24.38
2022-08-02T08:02:03.543Z,24.38
2022-08-02T08:03:03.364Z,24.38
2022-08-02T08:04:04.365Z,24.39
2022-08-02T08:05:03.317Z,24.41
2022-08-02T08:06:03.357Z,24.43
2022-08-02T08:07:03.286Z,24.46
2022-08-02T08:08:03.496Z,24.48
2022-08-02T08:09:03.268Z,24.51
2022-08-02T08:10:03.284Z,24.53
2022-08-02T08:11:03.237Z,24.56
2022-08-02T08:12:04.212Z,24.58
2022-08-02T08:13:03.307Z,24.61
2022-08-02T08:14:03.337Z,24.64
2022-08-02T08:15:03.738Z,24.67
2022-08-02T08:16:03.230Z,24.68
2022-08-02T08:17:03.168Z,24.68
2022-08-02T08:18:03.247Z,24.69
2022-08-02T08:19:03.128Z,24.71
2022-08-02T08:20:03.268Z,24.72
2022-08-02T08:21:03.109Z,24.74
2022-08-02T08:22:03.168Z,24.78
2022-08-02T08:23:03.081Z,24.81
2022-08-02T08:24:03.177Z,24.84
2022-08-02T08:25:03.057Z,24.87
2022-08-02T08:26:03.150Z,24.87
2022-08-02T08:27:03.032Z,24.85
2022-08-02T08:28:03.141Z,24.83
2022-08-02T08:29:24.103Z,24.80
2022-08-02T08:30:02.988Z,24.72
2022-08-02T08:31:03.374Z,24.62
2022-08-02T08:32:02.983Z,24.57
2022-08-02T08:33:03.044Z,24.49
2022-08-02T08:34:03.533Z,24.42
2022-08-02T08:35:02.953Z,24.36
2022-08-02T08:36:02.911Z,24.33
2022-08-02T08:37:02.966Z,24.32
2022-08-02T08:38:07.247Z,24.33
2022-08-02T08:39:03.872Z,24.36
2022-08-02T08:40:04.156Z,24.40
2022-08-02T08:41:02.855Z,24.44
2022-08-02T08:42:02.897Z,24.48
2022-08-02T08:43:03.949Z,24.51
2022-08-02T08:44:02.832Z,24.55
2022-08-02T08:45:03.862Z,24.57
2022-08-02T08:46:03.277Z,24.60
2022-08-02T08:47:02.833Z,24.65
2022-08-02T08:48:02.755Z,24.70
2022-08-02T08:49:02.879Z,24.74
2022-08-02T08:50:02.753Z,24.79
2022-08-02T08:51:03.781Z,24.84
2022-08-02T08:52:02.695Z,24.89
2022-08-02T08:53:02.787Z,24.91
2022-08-02T08:54:02.677Z,24.90
2022-08-02T08:55:02.685Z,24.90
2022-08-02T08:56:02.776Z,24.90
2022-08-02T08:57:02.697Z,24.89
2022-08-02T08:58:02.623Z,24.88
2022-08-02T08:59:02.714Z,24.88
2022-08-02T09:00:02.596Z,24.90
2022-08-02T09:01:02.670Z,24.94
2022-08-02T09:02:16.816Z,24.97
2022-08-02T09:03:03.555Z,24.99
2022-08-02T09:04:02.647Z,25.02
2022-08-02T09:05:02.516Z,25.05
2022-08-02T09:06:03.406Z,25.09
2022-08-02T09:07:05.291Z,25.11
2022-08-02T09:08:02.616Z,25.14
2022-08-02T09:09:02.482Z,25.14
2022-08-02T09:10:02.503Z,25.15
2022-08-02T09:11:02.459Z,25.18
2022-08-02T09:12:02.508Z,25.20
2022-08-02T09:13:02.428Z,25.23
2022-08-02T09:14:03.439Z,25.28
2022-08-02T09:15:02.513Z,25.33
2022-08-02T09:16:12.674Z,25.34
2022-08-02T09:17:03.388Z,25.34
2022-08-02T09:18:02.459Z,25.35
2022-08-02T09:19:02.372Z,25.33
2022-08-02T09:20:03.372Z,25.29
2022-08-02T09:21:02.366Z,25.26
2022-08-02T09:22:02.376Z,25.24
2022-08-02T09:23:03.417Z,25.24
2022-08-02T09:24:02.290Z,25.23
2022-08-02T09:25:02.293Z,25.24
2022-08-02T09:26:05.747Z,25.24
2022-08-02T09:27:03.249Z,25.25
2022-08-02T09:28:02.321Z,25.29
2022-08-02T09:29:02.248Z,25.30
2022-08-02T09:30:11.631Z,25.31
2022-08-02T09:31:03.224Z,25.31
2022-08-02T09:32:02.244Z,25.33
2022-08-02T09:33:05.655Z,25.35
2022-08-02T09:34:02.145Z,25.36
2022-08-02T09:35:02.262Z,25.36
2022-08-02T09:36:06.476Z,25.37
2022-08-02T09:37:03.153Z,25.39
2022-08-02T09:38:02.184Z,25.42
2022-08-02T09:39:02.084Z,25.43
2022-08-02T09:40:02.243Z,25.44
2022-08-02T09:41:02.061Z,25.42
2022-08-02T09:42:02.102Z,25.41
2022-08-02T09:43:02.051Z,25.38
2022-08-02T09:44:03.986Z,25.37
2022-08-02T09:45:02.005Z,25.37
2022-08-02T09:46:02.034Z,25.38
2022-08-02T09:47:01.984Z,25.39
2022-08-02T09:48:24.013Z,25.44
2022-08-02T09:49:03.144Z,25.48
2022-08-02T09:50:02.064Z,25.54
2022-08-02T09:51:02.380Z,25.59
2022-08-02T09:52:01.968Z,25.63
2022-08-02T09:53:01.914Z,25.66
2022-08-02T09:54:09.403Z,25.69
2022-08-02T09:55:02.886Z,25.73
2022-08-02T09:56:01.904Z,25.75
2022-08-02T09:57:01.859Z,25.76
2022-08-02T09:58:01.917Z,25.78
2022-08-02T09:59:01.819Z,25.81
2022-08-02T10:00:01.877Z,25.84
2022-08-02T10:01:01.847Z,25.85
2022-08-02T10:02:04.066Z,25.87
2022-08-02T10:03:01.776Z,25.90
2022-08-02T10:04:01.866Z,25.93
2022-08-02T10:05:01.752Z,25.96
2022-08-02T10:06:02.554Z,25.98
2022-08-02T10:07:01.718Z,26.00
2022-08-02T10:08:01.861Z,26.02
2022-08-02T10:09:01.697Z,26.02
2022-08-02T10:10:01.797Z,26.03
2022-08-02T10:11:01.795Z,26.05
2022-08-02T10:12:01.801Z,26.07
2022-08-02T10:13:01.650Z,26.09
2022-08-02T10:14:01.803Z,26.11
2022-08-02T10:15:01.628Z,26.13
2022-08-02T10:16:01.639Z,26.14
2022-08-02T10:17:01.599Z,26.15
2022-08-02T10:18:09.389Z,26.17
2022-08-02T10:19:02.679Z,26.17
2022-08-02T10:20:04.738Z,26.18
2022-08-02T10:21:01.571Z,26.21
2022-08-02T10:22:01.531Z,26.24
2022-08-02T10:23:01.580Z,26.28
2022-08-02T10:24:01.531Z,26.30
2022-08-02T10:25:01.599Z,26.33
2022-08-02T10:26:01.486Z,26.35
2022-08-02T10:27:01.510Z,26.35
2022-08-02T10:28:05.814Z,26.38
2022-08-02T10:29:01.451Z,26.42
2022-08-02T10:30:01.490Z,26.47
2022-08-02T10:31:01.422Z,26.51
2022-08-02T10:32:01.442Z,26.54
2022-08-02T10:33:01.391Z,26.56
2022-08-02T10:34:01.461Z,26.57
2022-08-02T10:35:18.938Z,26.58
2022-08-02T10:36:06.965Z,26.59
2022-08-02T10:37:02.405Z,26.61
2022-08-02T10:38:01.632Z,26.63
2022-08-02T10:39:01.394Z,26.65
2022-08-02T10:40:01.302Z,26.65
2022-08-02T10:41:01.306Z,26.65
2022-08-02T10:42:01.290Z,26.64
2022-08-02T10:43:01.682Z,26.61
2022-08-02T10:44:01.235Z,26.60
2022-08-02T10:45:01.334Z,26.59
2022-08-02T10:46:01.215Z,26.57
2022-08-02T10:47:01.242Z,26.57
2022-08-02T10:48:01.267Z,26.58
2022-08-02T10:49:01.443Z,26.60
2022-08-02T10:50:01.206Z,26.61
2022-08-02T10:51:01.174Z,26.62
2022-08-02T10:52:01.143Z,26.64
2022-08-02T10:53:02.205Z,26.66
2022-08-02T10:54:01.133Z,26.69
2022-08-02T10:55:01.195Z,26.73
2022-08-02T10:56:01.100Z,26.77
2022-08-02T10:57:01.285Z,26.81
2022-08-02T10:58:01.056Z,26.82
2022-08-02T10:59:01.130Z,26.84
2022-08-02T11:00:01.057Z,26.84
2022-08-02T11:01:01.087Z,26.83
2022-08-02T11:02:01.092Z,26.81
2022-08-02T11:03:01.057Z,26.79
2022-08-02T11:04:00.986Z,26.82
2022-08-02T11:05:01.067Z,26.86
2022-08-02T11:06:00.978Z,26.91
2022-08-02T11:07:02.011Z,26.95
2022-08-02T11:08:00.935Z,27.01
2022-08-02T11:09:00.996Z,27.06
2022-08-02T11:10:00.909Z,27.12
2022-08-02T11:11:00.911Z,27.15
2022-08-02T11:12:00.888Z,27.19
2022-08-02T11:13:00.920Z,27.21
2022-08-02T11:14:00.860Z,27.21
2022-08-02T11:15:00.938Z,27.23
2022-08-02T11:16:00.828Z,27.23
2022-08-02T11:17:00.847Z,27.23
2022-08-02T11:18:00.828Z,27.24
2022-08-02T11:19:00.861Z,27.25
2022-08-02T11:20:00.778Z,27.26
2022-08-02T11:21:00.779Z,27.27
2022-08-02T11:22:00.750Z,27.33
2022-08-02T11:23:00.801Z,27.40
2022-08-02T11:24:00.750Z,27.45
2022-08-02T11:25:00.801Z,27.45
2022-08-02T11:26:10.996Z,27.43
2022-08-02T11:27:01.691Z,27.38
2022-08-02T11:28:00.722Z,27.34
2022-08-02T11:29:00.693Z,27.28
2022-08-02T11:30:00.684Z,27.21
2022-08-02T11:31:00.631Z,27.15
2022-08-02T11:32:00.651Z,27.13
2022-08-02T11:33:00.607Z,27.16
2022-08-02T11:34:00.662Z,27.21
2022-08-02T11:35:00.576Z,27.25
2022-08-02T11:36:00.635Z,27.34
2022-08-02T11:37:00.556Z,27.42
2022-08-02T11:38:00.593Z,27.49
2022-08-02T11:39:00.525Z,27.56
2022-08-02T11:40:01.633Z,27.59
2022-08-02T11:41:00.505Z,27.57
2022-08-02T11:42:01.508Z,27.57
2022-08-02T11:43:00.522Z,27.56
2022-08-02T11:44:00.457Z,27.54
2022-08-02T11:45:00.539Z,27.51
2022-08-02T11:46:00.436Z,27.47
2022-08-02T11:47:00.464Z,27.43
2022-08-02T11:48:00.426Z,27.39
2022-08-02T11:49:00.507Z,27.39
2022-08-02T11:50:00.412Z,27.43
2022-08-02T11:51:00.481Z,27.52
2022-08-02T11:52:00.379Z,27.63
2022-08-02T11:53:00.397Z,27.73
2022-08-02T11:54:00.378Z,27.77
2022-08-02T11:55:00.407Z,27.82
2022-08-02T11:56:00.316Z,27.91
2022-08-02T11:57:00.318Z,28.06
2022-08-02T11:58:04.637Z,28.16
2022-08-02T11:59:01.292Z,28.18
2022-08-02T12:00:00.338Z,28.12
2022-08-02T12:01:00.254Z,28.04
2022-08-02T12:02:00.257Z,28.00
2022-08-02T12:03:00.290Z,27.96
2022-08-02T12:04:00.270Z,27.92
2022-08-02T12:05:00.240Z,27.89
2022-08-02T12:06:06.363Z,27.94
2022-08-02T12:07:01.169Z,28.02
2022-08-02T12:08:00.193Z,28.09
2022-08-02T12:09:00.159Z,28.14
2022-08-02T12:10:00.214Z,28.12
2022-08-02T12:11:00.132Z,28.05
2022-08-02T12:12:00.120Z,27.98
2022-08-02T12:13:00.095Z,27.91
2022-08-02T12:14:00.141Z,27.90
2022-08-02T12:15:00.071Z,27.94
2022-08-02T12:16:00.159Z,27.96
2022-08-02T12:17:00.089Z,27.95
2022-08-02T12:18:00.067Z,27.95
2022-08-02T12:19:00.005Z,27.95
2022-08-02T12:20:00.099Z,27.92
2022-08-02T12:20:59.984Z,27.85
2022-08-02T12:22:00.091Z,27.79
2022-08-02T12:22:59.994Z,27.74
2022-08-02T12:24:01.378Z,27.69
2022-08-02T12:24:59.943Z,27.63
2022-08-02T12:26:00.016Z,27.56
2022-08-02T12:26:59.911Z,27.50
2022-08-02T12:27:59.935Z,27.44
2022-08-02T12:28:59.963Z,27.38
2022-08-02T12:29:59.952Z,27.32
2022-08-02T12:30:59.854Z,27.27
2022-08-02T12:31:59.972Z,27.25
2022-08-02T12:32:59.827Z,27.24
2022-08-02T12:33:59.875Z,27.22
2022-08-02T12:34:59.826Z,27.21
2022-08-02T12:35:59.888Z,27.18
2022-08-02T12:36:59.806Z,27.15
2022-08-02T12:37:59.797Z,27.14
2022-08-02T12:38:59.756Z,27.13
2022-08-02T12:39:59.816Z,27.12
2022-08-02T12:40:59.746Z,27.11
2022-08-02T12:41:59.835Z,27.08
2022-08-02T12:42:59.709Z,27.07
2022-08-02T12:44:00.773Z,27.05
2022-08-02T12:44:59.694Z,27.03
2022-08-02T12:45:59.759Z,27.02
2022-08-02T12:46:59.668Z,27.02
2022-08-02T12:47:59.668Z,27.04
2022-08-02T12:49:17.547Z,27.07
2022-08-02T12:50:00.687Z,27.10
2022-08-02T12:50:59.691Z,27.10
2022-08-02T12:52:03.385Z,27.08